METAR AND TAF INFORMATION
METAR FOR LDZA
ADDS - METARS form results

(1820 UTC 29 September 2020)
Data provider http://aviationweather.gov/metar/data/
 
METAR text: LDZA 291800Z 22004KT CAVOK 13/10 Q1016 NOSIG
Conditions at: LDZA (ZAGREB/PLESO , HR) observed 1800 UTC 29 September 2020
Temperature: 13.0°C (55°F)
Dewpoint: 10.0°C (50°F) [RH = 82%]
Pressure (altimeter): 30.00 inches Hg (1016.0 mb)
Winds: from the SW (220 degrees) at 5 MPH (4 knots; 2.1 m/s)
Visibility: 6 or more miles (10+ km)
Ceiling: ceiling and visibility are OK
Clouds: unknown
Weather: no significant weather observed at this time

METAR text: LDZA 291730Z 21003KT CAVOK 14/10 Q1016 NOSIG
Conditions at: LDZA (ZAGREB/PLESO , HR) observed 1730 UTC 29 September 2020
Temperature: 14.0°C (57°F)
Dewpoint: 10.0°C (50°F) [RH = 77%]
Pressure (altimeter): 30.00 inches Hg (1016.0 mb)
Winds: from the SSW (210 degrees) at 3 MPH (3 knots; 1.5 m/s)
Visibility: 6 or more miles (10+ km)
Ceiling: ceiling and visibility are OK
Clouds: unknown
Weather: no significant weather observed at this time

Forecast for: LDZA (ZAGREB/PLESO , HR)
Text: TAF LDZA 291725Z 2918/3018 22004KT CAVOK TX22/3013Z TN08/3005Z
Forecast period: 1800 UTC 29 September 2020 to 1800 UTC 30 September 2020
Forecast type: FROM: standard forecast or significant change
Winds: from the SW (220 degrees) at 5 MPH (4 knots; 2.1 m/s)
Visibility: 6 or more miles (10+ km)
Ceiling: unknown
Clouds: missing
Weather: no significant weather forecast for this period
Text: PROB40 3000/3006 4000 MIFG BR
Forecast period: 0000 to 0600 UTC 30 September 2020
Forecast type: PROBABLE: 40 percent likelihood of the following during this time
Visibility: 2.49 miles (4.01 km)
Ceiling: unknown
Clouds: missing
Weather: MIFG BR  (shallow fog, mist)
Text: PROB40
Forecast period: 1000 to 1300 UTC 30 September 2020
Forecast type: TEMPORARY: The following changes expected for less than half the time period
Winds: from the SW (220 degrees) at 9 MPH (8 knots; 4.1 m/s)
Visibility: missing
Ceiling: unknown
Clouds: missing
Weather: no significant weather forecast for this period

 AIRPORT MAP

 RUNWAY INFORMATION
Runway 05 Runway length 10669 ft Runway width 148 ft
Runway elevation 353 ft Runway displaced threshold 0 ft Runway heading 47
Runway 23 Runway length 10669 ft Runway width 148 ft
Runway elevation 348 ft Runway displaced threshold 0 ft Runway heading 227

 AIRPORT FREQUENCIES
Type APP Name APP Frequency 120.7 MHZ
Type ATIS Name ATIS Frequency 124.375 MHZ
Type GND Name GND Frequency 121.85 MHZ
Type INFO Name INFO Frequency 124.85 MHZ
Type RDR Name RADAR Frequency 120.7 MHZ
Type TWR Name TWR Frequency 118.3 MHZ

 AIRPORT NEAR NAVIGATION AIDS
Type DME Name Iza Frequency 109500 KHZ
Type NDB Name Pisarovina Frequency 424 KHZ
Type NDB Name S.kKaljevec Frequency 350 KHZ
Type NDB Name Velika Gorica Frequency 325 KHZ
Type VOR-DME Name Zagreb Frequency 113700 KHZ
Type NDB Name Zagreb Frequency 367 KHZ



Powered by Virtual Airlines Manager [v2.6.2]